Startpagina
METAR-TAF:

METAR-TAF

Vliegvelden :

Southampton Airport

Southampton, Engeland

breedte: 50-54N, lengte: 001-24W, hoogte: 9 m

Actueel weer

Dit bericht is 37 minuten geleden gemaakt, om 16:50 UTC
Wind 7 kt uit het westzuidwesten, variërend tussen het zuidwesten en het westen
Temperatuur 6°C
Vochtigheid 65%
Druk 1009 hPa
Zicht 10 km of meer
Weinig wolken op 3600 ft

METAR: EGHI 261650Z 25007KT 220V280 9999 FEW036 06/M00 Q1009

Tijdstip: 17:27 (17:27 UTC)

Verwachting

Dit bericht is 3 uur en het 37 minuten geleden gemaakt, om 13:50 UTC
Verwachting geldig van 26 om 15 UTC tot 26 om 23 UTC
Wind 10 kt uit het westnoordwesten
Zicht 10 km of meer
Verspreide wolken op 2500 ft
Kans 30% :
Tijdelijke
van 26 om 15 UTC tot 26 om 16 UTC
Wind 15 kt uit het westen met uitschieters tot 25 kt
Zicht: 7000 m
regenbuien
Wijzigt naar
van 26 om 21 UTC tot 26 om 23 UTC
Wind 4 kt uit het zuidzuidwesten

TAF: EGHI 261350Z 2615/2623 29010KT 9999 SCT025 PROB30 TEMPO 2615/2616 28015G25KT 7000 SHRA BECMG 2621/2623 20004KT

Waarnemingen en weersverwachtingen van meer dan 4000 vliegvelden (METAR en TAF).

De beschikbare stations zijn de gele en rode punten op de kaart.

Ga met uw muis naar het station om de naam te zien.

Klik dan om waarnemingen en weersverwachtingen te zien.

kaart wijzigen: klik op de groene knoppen met een zwart kruis om in te zoomen, op de groene knop met een streepje om uit te zoomen of op de groene pijlen voor aangrenzende kaarten.


METAR-TAF: